sensor_id;sensor_type;location;lat;lon;timestamp;pressure;altitude;pressure_sealevel;temperature;humidity
43420;BME280;29017;51.514;-0.178;2023-12-04T00:01:17;99947.41;;;9.77;100.00
43420;BME280;29017;51.514;-0.178;2023-12-04T00:03:45;99942.50;;;9.74;100.00
43420;BME280;29017;51.514;-0.178;2023-12-04T00:06:13;99943.03;;;9.70;100.00
43420;BME280;29017;51.514;-0.178;2023-12-04T00:08:45;99937.09;;;9.68;100.00
43420;BME280;29017;51.514;-0.178;2023-12-04T00:11:13;99938.25;;;9.65;100.00
43420;BME280;29017;51.514;-0.178;2023-12-04T00:13:40;99927.94;;;9.64;100.00
43420;BME280;29017;51.514;-0.178;2023-12-04T00:16:08;99929.75;;;9.63;100.00
43420;BME280;29017;51.514;-0.178;2023-12-04T00:18:35;99912.84;;;9.58;100.00
43420;BME280;29017;51.514;-0.178;2023-12-04T00:21:05;99914.50;;;9.59;100.00
43420;BME280;29017;51.514;-0.178;2023-12-04T00:23:35;99911.19;;;9.57;100.00
43420;BME280;29017;51.514;-0.178;2023-12-04T00:26:02;99902.34;;;9.58;100.00
43420;BME280;29017;51.514;-0.178;2023-12-04T00:28:30;99898.22;;;9.55;100.00
43420;BME280;29017;51.514;-0.178;2023-12-04T00:30:57;99896.44;;;9.56;100.00
43420;BME280;29017;51.514;-0.178;2023-12-04T00:33:24;99882.31;;;9.57;100.00
43420;BME280;29017;51.514;-0.178;2023-12-04T00:35:53;99879.84;;;9.55;100.00
43420;BME280;29017;51.514;-0.178;2023-12-04T00:38:27;99875.78;;;9.53;100.00
43420;BME280;29017;51.514;-0.178;2023-12-04T00:41:01;99874.78;;;9.54;100.00
43420;BME280;29017;51.514;-0.178;2023-12-04T00:43:29;99864.59;;;9.51;100.00
43420;BME280;29017;51.514;-0.178;2023-12-04T00:45:56;99851.84;;;9.48;100.00
43420;BME280;29017;51.514;-0.178;2023-12-04T00:48:24;99850.84;;;9.49;100.00
43420;BME280;29017;51.514;-0.178;2023-12-04T00:50:51;99840.34;;;9.49;100.00
43420;BME280;29017;51.514;-0.178;2023-12-04T00:53:19;99837.03;;;9.55;100.00
43420;BME280;29017;51.514;-0.178;2023-12-04T00:55:46;99839.97;;;9.60;100.00
43420;BME280;29017;51.514;-0.178;2023-12-04T00:58:14;99829.50;;;9.52;100.00
43420;BME280;29017;51.514;-0.178;2023-12-04T01:00:41;99832.78;;;9.45;100.00
43420;BME280;29017;51.514;-0.178;2023-12-04T01:03:16;99828.25;;;9.31;100.00
43420;BME280;29017;51.514;-0.178;2023-12-04T01:05:46;99824.81;;;9.31;100.00
43420;BME280;29017;51.514;-0.178;2023-12-04T01:08:18;99812.88;;;9.28;100.00
43420;BME280;29017;51.514;-0.178;2023-12-04T01:10:48;99809.56;;;9.26;100.00
43420;BME280;29017;51.514;-0.178;2023-12-04T01:13:17;99808.28;;;9.22;100.00
43420;BME280;29017;51.514;-0.178;2023-12-04T01:15:47;99799.75;;;9.20;100.00
43420;BME280;29017;51.514;-0.178;2023-12-04T01:18:16;99792.38;;;9.16;100.00
43420;BME280;29017;51.514;-0.178;2023-12-04T01:20:47;99783.53;;;9.17;100.00
43420;BME280;29017;51.514;-0.178;2023-12-04T01:23:17;99774.38;;;9.13;100.00
43420;BME280;29017;51.514;-0.178;2023-12-04T01:25:45;99768.66;;;9.09;100.00
43420;BME280;29017;51.514;-0.178;2023-12-04T01:28:13;99760.94;;;9.08;100.00
43420;BME280;29017;51.514;-0.178;2023-12-04T01:30:41;99757.50;;;9.07;100.00
43420;BME280;29017;51.514;-0.178;2023-12-04T01:33:08;99747.47;;;9.11;100.00
43420;BME280;29017;51.514;-0.178;2023-12-04T01:35:39;99745.72;;;9.03;100.00
43420;BME280;29017;51.514;-0.178;2023-12-04T01:38:07;99741.59;;;9.00;100.00
43420;BME280;29017;51.514;-0.178;2023-12-04T01:40:35;99736.72;;;8.97;100.00
43420;BME280;29017;51.514;-0.178;2023-12-04T01:43:05;99736.19;;;9.02;100.00
43420;BME280;29017;51.514;-0.178;2023-12-04T01:45:34;99728.66;;;8.99;100.00
43420;BME280;29017;51.514;-0.178;2023-12-04T01:48:02;99727.19;;;8.96;100.00
43420;BME280;29017;51.514;-0.178;2023-12-04T01:50:30;99713.72;;;8.99;100.00
43420;BME280;29017;51.514;-0.178;2023-12-04T01:52:58;99716.72;;;8.96;100.00
43420;BME280;29017;51.514;-0.178;2023-12-04T01:55:25;99713.63;;;8.93;100.00
43420;BME280;29017;51.514;-0.178;2023-12-04T01:57:53;99709.34;;;8.92;100.00
43420;BME280;29017;51.514;-0.178;2023-12-04T02:00:23;99708.69;;;8.90;100.00
43420;BME280;29017;51.514;-0.178;2023-12-04T02:02:50;99702.66;;;8.81;100.00
43420;BME280;29017;51.514;-0.178;2023-12-04T02:05:21;99693.97;;;8.81;100.00
43420;BME280;29017;51.514;-0.178;2023-12-04T02:07:52;99686.28;;;8.79;100.00
43420;BME280;29017;51.514;-0.178;2023-12-04T02:10:20;99683.50;;;8.81;100.00
43420;BME280;29017;51.514;-0.178;2023-12-04T02:12:50;99696.75;;;8.79;100.00
43420;BME280;29017;51.514;-0.178;2023-12-04T02:15:17;99693.31;;;8.79;100.00
43420;BME280;29017;51.514;-0.178;2023-12-04T02:17:53;99680.72;;;8.74;100.00
43420;BME280;29017;51.514;-0.178;2023-12-04T02:20:27;99677.13;;;8.75;100.00
43420;BME280;29017;51.514;-0.178;2023-12-04T02:22:57;99669.75;;;8.71;100.00
43420;BME280;29017;51.514;-0.178;2023-12-04T02:25:25;99671.91;;;8.67;100.00
43420;BME280;29017;51.514;-0.178;2023-12-04T02:28:04;99662.41;;;8.66;100.00
43420;BME280;29017;51.514;-0.178;2023-12-04T02:30:35;99655.22;;;8.60;100.00
43420;BME280;29017;51.514;-0.178;2023-12-04T02:33:05;99658.00;;;8.58;100.00
43420;BME280;29017;51.514;-0.178;2023-12-04T02:35:35;99648.81;;;8.63;100.00
43420;BME280;29017;51.514;-0.178;2023-12-04T02:38:05;99646.38;;;8.61;100.00
43420;BME280;29017;51.514;-0.178;2023-12-04T02:40:32;99634.06;;;8.62;100.00
43420;BME280;29017;51.514;-0.178;2023-12-04T02:43:00;99629.50;;;8.55;100.00
43420;BME280;29017;51.514;-0.178;2023-12-04T02:45:28;99622.00;;;8.52;100.00
43420;BME280;29017;51.514;-0.178;2023-12-04T02:47:56;99625.59;;;8.51;100.00
43420;BME280;29017;51.514;-0.178;2023-12-04T02:50:24;99621.34;;;8.50;100.00
43420;BME280;29017;51.514;-0.178;2023-12-04T02:52:52;99616.91;;;8.51;100.00
43420;BME280;29017;51.514;-0.178;2023-12-04T02:55:19;99614.59;;;8.56;100.00
43420;BME280;29017;51.514;-0.178;2023-12-04T02:57:49;99608.38;;;8.49;100.00
43420;BME280;29017;51.514;-0.178;2023-12-04T03:00:19;99598.41;;;8.52;100.00
43420;BME280;29017;51.514;-0.178;2023-12-04T03:02:46;99596.75;;;8.51;100.00
43420;BME280;29017;51.514;-0.178;2023-12-04T03:05:14;99587.72;;;8.54;100.00
43420;BME280;29017;51.514;-0.178;2023-12-04T03:07:42;99579.91;;;8.46;100.00
43420;BME280;29017;51.514;-0.178;2023-12-04T03:10:12;99574.00;;;8.44;100.00
43420;BME280;29017;51.514;-0.178;2023-12-04T03:12:40;99569.13;;;8.41;100.00
43420;BME280;29017;51.514;-0.178;2023-12-04T03:15:07;99565.16;;;8.45;100.00
43420;BME280;29017;51.514;-0.178;2023-12-04T03:17:35;99564.53;;;8.43;100.00
43420;BME280;29017;51.514;-0.178;2023-12-04T03:20:02;99555.19;;;8.40;100.00
43420;BME280;29017;51.514;-0.178;2023-12-04T03:22:30;99544.25;;;8.37;100.00
43420;BME280;29017;51.514;-0.178;2023-12-04T03:24:58;99539.47;;;8.40;100.00
43420;BME280;29017;51.514;-0.178;2023-12-04T03:27:25;99538.66;;;8.40;100.00
43420;BME280;29017;51.514;-0.178;2023-12-04T03:29:53;99527.66;;;8.44;100.00
43420;BME280;29017;51.514;-0.178;2023-12-04T03:32:21;99527.66;;;8.44;100.00
43420;BME280;29017;51.514;-0.178;2023-12-04T03:34:49;99519.31;;;8.41;100.00
43420;BME280;29017;51.514;-0.178;2023-12-04T03:37:16;99516.34;;;8.44;100.00
43420;BME280;29017;51.514;-0.178;2023-12-04T03:39:44;99515.38;;;8.45;100.00
43420;BME280;29017;51.514;-0.178;2023-12-04T03:42:11;99515.53;;;8.43;100.00
43420;BME280;29017;51.514;-0.178;2023-12-04T03:44:39;99499.47;;;8.46;100.00
43420;BME280;29017;51.514;-0.178;2023-12-04T03:47:06;99505.53;;;8.47;100.00
43420;BME280;29017;51.514;-0.178;2023-12-04T03:49:34;99498.13;;;8.50;100.00
43420;BME280;29017;51.514;-0.178;2023-12-04T03:52:02;99488.31;;;8.52;100.00
43420;BME280;29017;51.514;-0.178;2023-12-04T03:54:29;99496.69;;;8.48;100.00
43420;BME280;29017;51.514;-0.178;2023-12-04T03:56:56;99486.38;;;8.46;100.00
43420;BME280;29017;51.514;-0.178;2023-12-04T03:59:24;99468.19;;;8.45;100.00
43420;BME280;29017;51.514;-0.178;2023-12-04T04:01:51;99471.63;;;8.45;100.00
43420;BME280;29017;51.514;-0.178;2023-12-04T04:04:18;99469.81;;;8.46;100.00
43420;BME280;29017;51.514;-0.178;2023-12-04T04:06:48;99473.72;;;8.50;100.00
43420;BME280;29017;51.514;-0.178;2023-12-04T04:09:16;99464.41;;;8.47;100.00
43420;BME280;29017;51.514;-0.178;2023-12-04T04:11:44;99465.69;;;8.51;100.00
43420;BME280;29017;51.514;-0.178;2023-12-04T04:14:14;99468.16;;;8.53;100.00
43420;BME280;29017;51.514;-0.178;2023-12-04T04:16:44;99466.47;;;8.60;100.00
43420;BME280;29017;51.514;-0.178;2023-12-04T04:19:12;99459.78;;;8.57;100.00
43420;BME280;29017;51.514;-0.178;2023-12-04T04:21:40;99458.94;;;8.57;100.00
43420;BME280;29017;51.514;-0.178;2023-12-04T04:24:11;99461.38;;;8.58;100.00
43420;BME280;29017;51.514;-0.178;2023-12-04T04:26:38;99450.91;;;8.58;100.00
43420;BME280;29017;51.514;-0.178;2023-12-04T04:29:05;99455.81;;;8.62;100.00
43420;BME280;29017;51.514;-0.178;2023-12-04T04:31:33;99449.09;;;8.59;100.00
43420;BME280;29017;51.514;-0.178;2023-12-04T04:34:01;99456.09;;;8.67;100.00
43420;BME280;29017;51.514;-0.178;2023-12-04T04:36:30;99449.22;;;8.66;100.00
43420;BME280;29017;51.514;-0.178;2023-12-04T04:38:58;99449.69;;;8.69;100.00
43420;BME280;29017;51.514;-0.178;2023-12-04T04:41:26;99437.59;;;8.68;100.00
43420;BME280;29017;51.514;-0.178;2023-12-04T04:43:56;99442.81;;;8.68;100.00
43420;BME280;29017;51.514;-0.178;2023-12-04T04:46:26;99434.47;;;8.65;100.00
43420;BME280;29017;51.514;-0.178;2023-12-04T04:48:56;99431.97;;;8.71;100.00
43420;BME280;29017;51.514;-0.178;2023-12-04T04:51:23;99428.06;;;8.67;100.00
43420;BME280;29017;51.514;-0.178;2023-12-04T04:53:51;99422.06;;;8.58;100.00
43420;BME280;29017;51.514;-0.178;2023-12-04T04:56:18;99419.56;;;8.65;100.00
43420;BME280;29017;51.514;-0.178;2023-12-04T04:58:46;99418.66;;;8.58;100.00
43420;BME280;29017;51.514;-0.178;2023-12-04T05:01:18;99414.19;;;8.58;100.00
43420;BME280;29017;51.514;-0.178;2023-12-04T05:03:46;99414.47;;;8.64;100.00
43420;BME280;29017;51.514;-0.178;2023-12-04T05:06:13;99409.44;;;8.62;100.00
43420;BME280;29017;51.514;-0.178;2023-12-04T05:08:41;99403.00;;;8.65;100.00
43420;BME280;29017;51.514;-0.178;2023-12-04T05:11:09;99403.00;;;8.65;100.00
43420;BME280;29017;51.514;-0.178;2023-12-04T05:13:37;99385.47;;;8.65;100.00
43420;BME280;29017;51.514;-0.178;2023-12-04T05:16:05;99395.84;;;8.58;100.00
43420;BME280;29017;51.514;-0.178;2023-12-04T05:18:32;99384.84;;;8.63;100.00
43420;BME280;29017;51.514;-0.178;2023-12-04T05:21:02;99390.56;;;8.67;100.00
43420;BME280;29017;51.514;-0.178;2023-12-04T05:23:30;99387.94;;;8.67;100.00
43420;BME280;29017;51.514;-0.178;2023-12-04T05:25:58;99386.66;;;8.63;100.00
43420;BME280;29017;51.514;-0.178;2023-12-04T05:28:25;99390.56;;;8.67;100.00
43420;BME280;29017;51.514;-0.178;2023-12-04T05:30:53;99387.13;;;8.66;100.00
43420;BME280;29017;51.514;-0.178;2023-12-04T05:33:20;99373.63;;;8.69;100.00
43420;BME280;29017;51.514;-0.178;2023-12-04T05:35:50;99369.47;;;8.60;100.00
43420;BME280;29017;51.514;-0.178;2023-12-04T05:38:19;99371.09;;;8.61;100.00
43420;BME280;29017;51.514;-0.178;2023-12-04T05:40:47;99366.56;;;8.55;100.00
43420;BME280;29017;51.514;-0.178;2023-12-04T05:43:14;99372.09;;;8.60;100.00
43420;BME280;29017;51.514;-0.178;2023-12-04T05:45:42;99366.22;;;8.58;100.00
43420;BME280;29017;51.514;-0.178;2023-12-04T05:48:10;99358.16;;;8.59;100.00
43420;BME280;29017;51.514;-0.178;2023-12-04T05:50:39;99356.03;;;8.63;100.00
43420;BME280;29017;51.514;-0.178;2023-12-04T05:53:07;99352.47;;;8.56;100.00
43420;BME280;29017;51.514;-0.178;2023-12-04T05:55:35;99353.91;;;8.58;100.00
43420;BME280;29017;51.514;-0.178;2023-12-04T05:58:02;99348.50;;;8.60;100.00
43420;BME280;29017;51.514;-0.178;2023-12-04T06:00:33;99343.38;;;8.67;100.00
43420;BME280;29017;51.514;-0.178;2023-12-04T06:03:01;99343.81;;;8.70;100.00
43420;BME280;29017;51.514;-0.178;2023-12-04T06:05:33;99332.72;;;8.68;100.00
43420;BME280;29017;51.514;-0.178;2023-12-04T06:08:03;99338.56;;;8.70;100.00
43420;BME280;29017;51.514;-0.178;2023-12-04T06:10:30;99322.03;;;8.70;100.00
43420;BME280;29017;51.514;-0.178;2023-12-04T06:12:57;99321.84;;;8.71;100.00
43420;BME280;29017;51.514;-0.178;2023-12-04T06:15:25;99322.22;;;8.68;100.00
43420;BME280;29017;51.514;-0.178;2023-12-04T06:17:52;99321.69;;;8.73;100.00
43420;BME280;29017;51.514;-0.178;2023-12-04T06:20:20;99316.59;;;8.71;100.00
43420;BME280;29017;51.514;-0.178;2023-12-04T06:22:51;99309.72;;;8.70;100.00
43420;BME280;29017;51.514;-0.178;2023-12-04T06:25:19;99309.91;;;8.69;100.00
43420;BME280;29017;51.514;-0.178;2023-12-04T06:27:47;99306.66;;;8.67;100.00
43420;BME280;29017;51.514;-0.178;2023-12-04T06:30:14;99309.91;;;8.69;100.00
43420;BME280;29017;51.514;-0.178;2023-12-04T06:32:45;99306.13;;;8.71;100.00
43420;BME280;29017;51.514;-0.178;2023-12-04T06:35:14;99303.31;;;8.73;100.00
43420;BME280;29017;51.514;-0.178;2023-12-04T06:37:45;99300.88;;;8.71;100.00
43420;BME280;29017;51.514;-0.178;2023-12-04T06:40:14;99304.94;;;8.74;100.00
43420;BME280;29017;51.514;-0.178;2023-12-04T06:42:43;99301.69;;;8.72;100.00
43420;BME280;29017;51.514;-0.178;2023-12-04T06:45:11;99303.50;;;8.71;100.00
43420;BME280;29017;51.514;-0.178;2023-12-04T06:47:39;99299.53;;;8.75;100.00
43420;BME280;29017;51.514;-0.178;2023-12-04T06:50:11;99296.91;;;8.75;100.00
43420;BME280;29017;51.514;-0.178;2023-12-04T06:52:39;99295.81;;;8.70;100.00
43420;BME280;29017;51.514;-0.178;2023-12-04T06:55:07;99293.19;;;8.70;100.00
43420;BME280;29017;51.514;-0.178;2023-12-04T06:57:39;99292.84;;;8.73;100.00
43420;BME280;29017;51.514;-0.178;2023-12-04T07:00:07;99295.09;;;8.76;100.00
43420;BME280;29017;51.514;-0.178;2023-12-04T07:02:48;99285.41;;;8.76;100.00
43420;BME280;29017;51.514;-0.178;2023-12-04T07:05:19;99285.88;;;8.80;100.00
43420;BME280;29017;51.514;-0.178;2023-12-04T07:10:59;99280.81;;;8.78;100.00
43420;BME280;29017;51.514;-0.178;2023-12-04T07:13:27;99280.44;;;8.81;100.00
43420;BME280;29017;51.514;-0.178;2023-12-04T07:15:57;99280.28;;;8.83;100.00
43420;BME280;29017;51.514;-0.178;2023-12-04T07:18:26;99275.84;;;8.83;100.00
43420;BME280;29017;51.514;-0.178;2023-12-04T07:20:54;99279.81;;;8.79;100.00
43420;BME280;29017;51.514;-0.178;2023-12-04T07:23:26;99269.78;;;8.83;100.00
43420;BME280;29017;51.514;-0.178;2023-12-04T07:25:53;99271.22;;;8.85;100.00
43420;BME280;29017;51.514;-0.178;2023-12-04T07:28:20;99269.97;;;8.81;100.00
43420;BME280;29017;51.514;-0.178;2023-12-04T07:30:47;99277.28;;;8.86;100.00
43420;BME280;29017;51.514;-0.178;2023-12-04T07:33:14;99271.22;;;8.85;100.00
43420;BME280;29017;51.514;-0.178;2023-12-04T07:35:42;99271.50;;;8.90;100.00
43420;BME280;29017;51.514;-0.178;2023-12-04T07:38:09;99274.78;;;8.92;100.00
43420;BME280;29017;51.514;-0.178;2023-12-04T07:40:36;99270.34;;;8.93;100.00
43420;BME280;29017;51.514;-0.178;2023-12-04T07:43:03;99279.53;;;8.89;100.00
43420;BME280;29017;51.514;-0.178;2023-12-04T07:45:33;99270.69;;;8.90;100.00
43420;BME280;29017;51.514;-0.178;2023-12-04T07:48:01;99264.63;;;8.89;100.00
43420;BME280;29017;51.514;-0.178;2023-12-04T07:50:28;99265.91;;;8.93;100.00
43420;BME280;29017;51.514;-0.178;2023-12-04T07:52:55;99262.00;;;8.89;100.00
43420;BME280;29017;51.514;-0.178;2023-12-04T07:55:22;99261.66;;;8.92;100.00
43420;BME280;29017;51.514;-0.178;2023-12-04T07:57:50;99264.88;;;8.94;100.00
43420;BME280;29017;51.514;-0.178;2023-12-04T08:00:18;99264.28;;;8.92;100.00
43420;BME280;29017;51.514;-0.178;2023-12-04T08:02:45;99265.44;;;8.90;100.00
43420;BME280;29017;51.514;-0.178;2023-12-04T08:05:13;99262.00;;;8.89;100.00
43420;BME280;29017;51.514;-0.178;2023-12-04T08:07:40;99255.41;;;8.93;100.00
43420;BME280;29017;51.514;-0.178;2023-12-04T08:10:07;99256.69;;;8.97;100.00
43420;BME280;29017;51.514;-0.178;2023-12-04T08:12:34;99258.09;;;9.00;100.00
43420;BME280;29017;51.514;-0.178;2023-12-04T08:15:02;99251.59;;;8.96;100.00
43420;BME280;29017;51.514;-0.178;2023-12-04T08:17:30;99253.06;;;8.98;100.00
43420;BME280;29017;51.514;-0.178;2023-12-04T08:19:57;99244.56;;;8.96;100.00
43420;BME280;29017;51.514;-0.178;2023-12-04T08:22:25;99243.91;;;8.94;100.00
43420;BME280;29017;51.514;-0.178;2023-12-04T08:24:52;99249.78;;;8.96;100.00
43420;BME280;29017;51.514;-0.178;2023-12-04T08:27:20;99234.88;;;8.97;100.00
43420;BME280;29017;51.514;-0.178;2023-12-04T08:29:47;99234.16;;;9.03;100.00
43420;BME280;29017;51.514;-0.178;2023-12-04T08:32:14;99238.75;;;9.01;100.00
43420;BME280;29017;51.514;-0.178;2023-12-04T08:34:42;99244.00;;;9.01;100.00
43420;BME280;29017;51.514;-0.178;2023-12-04T08:37:09;99246.47;;;9.02;100.00
43420;BME280;29017;51.514;-0.178;2023-12-04T08:39:39;99231.31;;;9.05;100.00
43420;BME280;29017;51.514;-0.178;2023-12-04T08:42:07;99240.00;;;9.05;100.00
43420;BME280;29017;51.514;-0.178;2023-12-04T08:44:43;99234.31;;;9.01;100.00
43420;BME280;29017;51.514;-0.178;2023-12-04T08:47:13;99238.38;;;9.04;100.00
43420;BME280;29017;51.514;-0.178;2023-12-04T08:49:43;99234.97;;;9.04;100.00
43420;BME280;29017;51.514;-0.178;2023-12-04T08:52:15;99233.34;;;9.02;100.00
43420;BME280;29017;51.514;-0.178;2023-12-04T08:54:42;99239.19;;;9.05;100.00
43420;BME280;29017;51.514;-0.178;2023-12-04T08:57:14;99238.84;;;9.08;100.00
43420;BME280;29017;51.514;-0.178;2023-12-04T08:59:48;99230.00;;;9.09;100.00
43420;BME280;29017;51.514;-0.178;2023-12-04T09:02:21;99231.59;;;9.10;100.00
43420;BME280;29017;51.514;-0.178;2023-12-04T09:04:49;99226.00;;;9.13;100.00
43420;BME280;29017;51.514;-0.178;2023-12-04T09:07:31;99229.78;;;9.10;100.00
43420;BME280;29017;51.514;-0.178;2023-12-04T09:10:02;99229.88;;;9.17;100.00
43420;BME280;29017;51.514;-0.178;2023-12-04T09:12:46;99232.13;;;9.20;100.00
43420;BME280;29017;51.514;-0.178;2023-12-04T09:15:25;99228.88;;;9.18;100.00
43420;BME280;29017;51.514;-0.178;2023-12-04T09:18:01;99226.88;;;9.20;100.00
43420;BME280;29017;51.514;-0.178;2023-12-04T09:20:45;99221.44;;;9.21;100.00
43420;BME280;29017;51.514;-0.178;2023-12-04T09:23:24;99221.84;;;9.18;100.00
43420;BME280;29017;51.514;-0.178;2023-12-04T09:25:53;99221.88;;;9.25;100.00
43420;BME280;29017;51.514;-0.178;2023-12-04T09:28:25;99221.53;;;9.28;100.00
43420;BME280;29017;51.514;-0.178;2023-12-04T09:30:59;99222.34;;;9.28;100.00
43420;BME280;29017;51.514;-0.178;2023-12-04T09:33:28;99219.53;;;9.30;100.00
43420;BME280;29017;51.514;-0.178;2023-12-04T09:36:11;99228.28;;;9.37;100.00
43420;BME280;29017;51.514;-0.178;2023-12-04T09:39:07;99232.72;;;9.36;100.00
43420;BME280;29017;51.514;-0.178;2023-12-04T09:42:10;99227.88;;;9.33;100.00
43420;BME280;29017;51.514;-0.178;2023-12-04T09:44:52;99228.94;;;9.39;100.00
43420;BME280;29017;51.514;-0.178;2023-12-04T09:47:31;99231.56;;;9.39;100.00
43420;BME280;29017;51.514;-0.178;2023-12-04T09:50:21;99226.94;;;9.41;100.00
43420;BME280;29017;51.514;-0.178;2023-12-04T09:53:04;99219.25;;;9.39;100.00
43420;BME280;29017;51.514;-0.178;2023-12-04T09:55:44;99227.13;;;9.39;100.00
43420;BME280;29017;51.514;-0.178;2023-12-04T09:58:31;99229.13;;;9.37;100.00
43420;BME280;29017;51.514;-0.178;2023-12-04T10:01:21;99229.38;;;9.42;100.00
43420;BME280;29017;51.514;-0.178;2023-12-04T10:04:00;99237.25;;;9.42;100.00
43420;BME280;29017;51.514;-0.178;2023-12-04T10:07:00;99233.81;;;9.42;100.00
43420;BME280;29017;51.514;-0.178;2023-12-04T10:09:46;99224.13;;;9.42;100.00
43420;BME280;29017;51.514;-0.178;2023-12-04T10:12:26;99230.63;;;9.47;100.00
43420;BME280;29017;51.514;-0.178;2023-12-04T10:17:47;99215.88;;;9.45;100.00
43420;BME280;29017;51.514;-0.178;2023-12-04T10:20:26;99215.06;;;9.45;100.00
43420;BME280;29017;51.514;-0.178;2023-12-04T10:23:12;99222.75;;;9.47;100.00
43420;BME280;29017;51.514;-0.178;2023-12-04T10:25:41;99216.13;;;9.51;100.00
43420;BME280;29017;51.514;-0.178;2023-12-04T10:28:22;99221.03;;;9.54;100.00
43420;BME280;29017;51.514;-0.178;2023-12-04T10:30:50;99212.75;;;9.57;100.00
43420;BME280;29017;51.514;-0.178;2023-12-04T10:33:21;99206.94;;;9.61;100.00
43420;BME280;29017;51.514;-0.178;2023-12-04T10:36:11;99204.31;;;9.61;100.00
43420;BME280;29017;51.514;-0.178;2023-12-04T10:38:38;99208.97;;;9.59;100.00
43420;BME280;29017;51.514;-0.178;2023-12-04T10:43:37;99201.69;;;9.61;100.00
43420;BME280;29017;51.514;-0.178;2023-12-04T10:46:30;99204.69;;;9.58;100.00
43420;BME280;29017;51.514;-0.178;2023-12-04T10:49:00;99195.19;;;9.57;100.00
43420;BME280;29017;51.514;-0.178;2023-12-04T10:51:32;99185.13;;;9.61;100.00
43420;BME280;29017;51.514;-0.178;2023-12-04T10:54:04;99191.00;;;9.63;100.00
43420;BME280;29017;51.514;-0.178;2023-12-04T10:59:11;99187.41;;;9.64;100.00
43420;BME280;29017;51.514;-0.178;2023-12-04T11:01:40;99188.22;;;9.64;100.00
43420;BME280;29017;51.514;-0.178;2023-12-04T11:04:10;99183.13;;;9.63;100.00
43420;BME280;29017;51.514;-0.178;2023-12-04T11:06:57;99174.38;;;9.56;100.00
43420;BME280;29017;51.514;-0.178;2023-12-04T11:09:41;99172.94;;;9.53;100.00
43420;BME280;29017;51.514;-0.178;2023-12-04T11:12:11;99180.44;;;9.56;100.00
43420;BME280;29017;51.514;-0.178;2023-12-04T11:14:45;99176.00;;;9.57;100.00
43420;BME280;29017;51.514;-0.178;2023-12-04T11:17:37;99175.00;;;9.58;100.00
43420;BME280;29017;51.514;-0.178;2023-12-04T11:20:16;99176.44;;;9.60;100.00
43420;BME280;29017;51.514;-0.178;2023-12-04T11:22:50;99171.63;;;9.64;100.00
43420;BME280;29017;51.514;-0.178;2023-12-04T11:25:20;99175.91;;;9.65;100.00
43420;BME280;29017;51.514;-0.178;2023-12-04T11:28:13;99164.75;;;9.63;100.00
43420;BME280;29017;51.514;-0.178;2023-12-04T11:31:02;99171.88;;;9.69;100.00
43420;BME280;29017;51.514;-0.178;2023-12-04T11:33:45;99160.00;;;9.73;100.00
43420;BME280;29017;51.514;-0.178;2023-12-04T11:36:42;99161.47;;;9.82;100.00
43420;BME280;29017;51.514;-0.178;2023-12-04T11:39:28;99140.91;;;9.85;100.00
43420;BME280;29017;51.514;-0.178;2023-12-04T11:42:24;99147.78;;;9.86;100.00
43420;BME280;29017;51.514;-0.178;2023-12-04T11:45:18;99139.91;;;9.86;100.00
43420;BME280;29017;51.514;-0.178;2023-12-04T11:50:26;99140.91;;;9.85;100.00
43420;BME280;29017;51.514;-0.178;2023-12-04T11:52:54;99132.66;;;9.88;100.00
43420;BME280;29017;51.514;-0.178;2023-12-04T11:55:25;99133.47;;;9.89;100.00
43420;BME280;29017;51.514;-0.178;2023-12-04T11:58:13;99129.88;;;9.97;100.00
43420;BME280;29017;51.514;-0.178;2023-12-04T12:00:41;99129.50;;;10.00;100.00
43420;BME280;29017;51.514;-0.178;2023-12-04T12:03:26;99128.69;;;9.99;100.00
43420;BME280;29017;51.514;-0.178;2023-12-04T12:06:09;99132.78;;;10.08;100.00
43420;BME280;29017;51.514;-0.178;2023-12-04T12:08:42;99126.72;;;10.08;100.00
43420;BME280;29017;51.514;-0.178;2023-12-04T12:11:16;99128.72;;;10.06;100.00
43420;BME280;29017;51.514;-0.178;2023-12-04T12:13:59;99125.91;;;10.07;100.00
43420;BME280;29017;51.514;-0.178;2023-12-04T12:16:27;99134.44;;;10.09;100.00
43420;BME280;29017;51.514;-0.178;2023-12-04T12:18:56;99128.13;;;10.04;100.00
43420;BME280;29017;51.514;-0.178;2023-12-04T12:21:29;99130.75;;;10.04;100.00
43420;BME280;29017;51.514;-0.178;2023-12-04T12:23:58;99132.38;;;10.05;100.00
43420;BME280;29017;51.514;-0.178;2023-12-04T12:26:46;99123.44;;;9.99;100.00
43420;BME280;29017;51.514;-0.178;2023-12-04T12:29:17;99120.81;;;9.99;100.00
43420;BME280;29017;51.514;-0.178;2023-12-04T12:31:45;99121.63;;;10.00;100.00
43420;BME280;29017;51.514;-0.178;2023-12-04T12:34:18;99122.63;;;9.99;100.00
43420;BME280;29017;51.514;-0.178;2023-12-04T12:36:48;99122.22;;;9.95;100.00
43420;BME280;29017;51.514;-0.178;2023-12-04T12:39:29;99125.59;;;9.89;100.00
43420;BME280;29017;51.514;-0.178;2023-12-04T12:42:00;99124.38;;;9.92;100.00
43420;BME280;29017;51.514;-0.178;2023-12-04T12:44:55;99122.34;;;9.87;100.00
43420;BME280;29017;51.514;-0.178;2023-12-04T12:47:42;99117.88;;;9.87;100.00
43420;BME280;29017;51.514;-0.178;2023-12-04T12:50:11;99108.38;;;9.86;100.00
43420;BME280;29017;51.514;-0.178;2023-12-04T12:52:46;99113.84;;;9.85;100.00
43420;BME280;29017;51.514;-0.178;2023-12-04T12:55:37;99109.19;;;9.87;100.00
43420;BME280;29017;51.514;-0.178;2023-12-04T12:58:05;99102.31;;;9.86;100.00
43420;BME280;29017;51.514;-0.178;2023-12-04T13:00:42;99101.31;;;9.87;100.00
43420;BME280;29017;51.514;-0.178;2023-12-04T13:05:55;99103.94;;;9.87;100.00
43420;BME280;29017;51.514;-0.178;2023-12-04T13:08:30;99098.88;;;9.85;100.00
43420;BME280;29017;51.514;-0.178;2023-12-04T13:10:58;99094.88;;;9.90;100.00
43420;BME280;29017;51.514;-0.178;2023-12-04T13:13:35;99096.31;;;9.92;100.00
43420;BME280;29017;51.514;-0.178;2023-12-04T13:16:04;99095.94;;;9.95;100.00
43420;BME280;29017;51.514;-0.178;2023-12-04T13:18:42;99093.31;;;9.95;100.00
43420;BME280;29017;51.514;-0.178;2023-12-04T13:21:11;99087.03;;;9.96;100.00
43420;BME280;29017;51.514;-0.178;2023-12-04T13:23:51;99085.03;;;9.98;100.00
43420;BME280;29017;51.514;-0.178;2023-12-04T13:26:33;99085.03;;;9.98;100.00
43420;BME280;29017;51.514;-0.178;2023-12-04T13:29:23;99084.84;;;10.00;100.00